Time;durP1;ratioP1;P1;durP2;ratioP2;P2;SDS_P1;SDS_P2;PMS_P1;PMS_P2;Temp;Humidity;BMP_temperature;BMP_pressure;BME280_temperature;BME280_humidity;BME280_pressure;Samples;Min_cycle;Max_cycle;Signal;HPM_P1;HPM_P2
2024/02/25 00:00:52;;;;;;;1.07;0.43;;;5.80;99.90;;;;;;4990880;28;20447;-54
2024/02/25 00:03:17;;;;;;;1.37;0.60;;;5.80;99.90;;;;;;4990952;28;20154;-51
2024/02/25 00:05:43;;;;;;;1.13;0.40;;;5.80;99.90;;;;;;4990883;28;20031;-54
2024/02/25 00:08:09;;;;;;;1.67;0.50;;;5.80;99.90;;;;;;4990815;28;20035;-51
2024/02/25 00:10:35;;;;;;;0.80;0.40;;;5.80;99.90;;;;;;4990612;28;20035;-53
2024/02/25 00:13:00;;;;;;;1.03;0.50;;;5.80;99.90;;;;;;4990729;28;20288;-53
2024/02/25 00:15:26;;;;;;;1.83;0.40;;;5.90;99.90;;;;;;4989414;28;20113;-54
2024/02/25 00:17:52;;;;;;;3.60;0.43;;;5.90;99.90;;;;;;4990689;28;20038;-50
2024/02/25 00:20:18;;;;;;;1.43;0.30;;;5.90;99.90;;;;;;4989493;28;20419;-51
2024/02/25 00:22:43;;;;;;;2.60;0.90;;;5.90;99.90;;;;;;4990538;28;20438;-53
2024/02/25 00:25:09;;;;;;;1.07;0.50;;;5.90;99.90;;;;;;4994185;28;20038;-52
2024/02/25 00:27:35;;;;;;;1.90;0.70;;;5.90;99.90;;;;;;4994183;28;20034;-53
2024/02/25 00:30:01;;;;;;;0.50;0.30;;;6.00;99.90;;;;;;4992711;28;20153;-53
2024/02/25 00:32:27;;;;;;;0.77;0.47;;;6.00;99.90;;;;;;4994155;28;20368;-54
2024/02/25 00:34:54;;;;;;;2.20;0.40;;;6.00;99.90;;;;;;4992879;28;20026;-51
2024/02/25 00:37:20;;;;;;;0.67;0.30;;;6.00;99.90;;;;;;4993945;28;20022;-51
2024/02/25 00:39:45;;;;;;;0.73;0.33;;;6.10;99.90;;;;;;4994109;28;20036;-50
2024/02/25 00:42:11;;;;;;;1.20;0.50;;;6.10;99.90;;;;;;4994000;28;20034;-52
2024/02/25 00:44:38;;;;;;;3.10;0.67;;;6.10;99.90;;;;;;4993737;28;20038;-54
2024/02/25 00:47:03;;;;;;;0.83;0.40;;;6.10;99.90;;;;;;4994021;28;20057;-51
2024/02/25 00:49:29;;;;;;;2.20;0.70;;;6.10;99.90;;;;;;4994139;28;20492;-54
2024/02/25 00:51:55;;;;;;;1.27;0.40;;;6.20;99.90;;;;;;4993775;28;20041;-52
2024/02/25 00:54:21;;;;;;;0.80;0.40;;;6.20;99.90;;;;;;4994178;28;20117;-51
2024/02/25 00:56:48;;;;;;;0.73;0.30;;;6.10;99.90;;;;;;4992553;28;20058;-52
2024/02/25 00:59:17;;;;;;;3.67;0.57;;;6.20;99.90;;;;;;4993634;28;20030;-53
2024/02/25 01:01:42;;;;;;;0.40;0.30;;;6.20;99.90;;;;;;4993491;28;20065;-54
2024/02/25 01:04:08;;;;;;;1.57;0.40;;;6.20;99.90;;;;;;4993730;28;20463;-53
2024/02/25 01:06:34;;;;;;;0.63;0.43;;;6.20;99.90;;;;;;4993585;28;20081;-53
2024/02/25 01:08:59;;;;;;;0.63;0.40;;;6.20;99.90;;;;;;4992376;28;20088;-54
2024/02/25 01:11:25;;;;;;;0.87;0.50;;;6.30;99.90;;;;;;4993122;28;20030;-50
2024/02/25 01:13:50;;;;;;;2.27;0.70;;;6.30;99.90;;;;;;4993210;28;20070;-51
2024/02/25 01:16:16;;;;;;;0.47;0.30;;;6.40;99.90;;;;;;4993416;28;20026;-51
2024/02/25 01:18:41;;;;;;;0.60;0.40;;;6.40;99.90;;;;;;4993445;28;20494;-54
2024/02/25 01:21:07;;;;;;;0.80;0.40;;;6.50;99.90;;;;;;4992948;28;20031;-53
2024/02/25 01:23:33;;;;;;;1.07;0.40;;;6.50;99.90;;;;;;4993151;28;20026;-54
2024/02/25 01:25:58;;;;;;;2.07;0.57;;;6.50;99.90;;;;;;4993668;28;20537;-51
2024/02/25 01:28:24;;;;;;;0.50;0.30;;;6.60;99.90;;;;;;4993011;28;20041;-55
2024/02/25 01:30:49;;;;;;;1.00;0.30;;;6.60;99.90;;;;;;4991387;28;20112;-55
2024/02/25 01:33:15;;;;;;;1.10;0.40;;;6.60;99.90;;;;;;4991633;28;20440;-51
2024/02/25 01:35:42;;;;;;;0.40;0.30;;;6.70;99.90;;;;;;4992276;28;20041;-51
2024/02/25 01:38:07;;;;;;;1.20;0.40;;;6.70;99.90;;;;;;4992886;28;20065;-54
2024/02/25 01:40:33;;;;;;;1.13;0.53;;;6.70;99.90;;;;;;4992823;28;20027;-53
2024/02/25 01:43:07;;;;;;;1.03;0.40;;;6.70;99.90;;;;;;4992914;28;20125;-53
2024/02/25 01:45:32;;;;;;;1.53;0.40;;;6.70;99.90;;;;;;4992650;28;20348;-53
2024/02/25 01:47:58;;;;;;;2.23;0.40;;;6.80;99.90;;;;;;4992858;28;20030;-53
2024/02/25 01:50:24;;;;;;;1.07;0.33;;;6.70;99.90;;;;;;4992673;28;20106;-55
2024/02/25 01:52:54;;;;;;;1.57;0.53;;;6.70;99.90;;;;;;4992484;28;20448;-52
2024/02/25 01:55:22;;;;;;;;;;;6.70;99.90;;;;;;4993327;28;20050;-52
2024/02/25 01:57:48;;;;;;;2.05;0.30;;;6.70;99.90;;;;;;4992401;28;19909;-55
2024/02/25 02:00:18;;;;;;;0.40;0.30;;;6.70;99.90;;;;;;4992487;28;20225;-55
2024/02/25 02:02:44;;;;;;;2.50;0.70;;;6.80;99.90;;;;;;4992681;28;20483;-51
2024/02/25 02:05:10;;;;;;;1.43;0.40;;;6.70;99.90;;;;;;4992473;28;20049;-54
2024/02/25 02:07:39;;;;;;;2.07;0.60;;;6.70;99.90;;;;;;4992586;28;20092;-53
2024/02/25 02:10:11;;;;;;;1.60;0.70;;;6.70;99.90;;;;;;4992410;28;20038;-54
2024/02/25 02:12:44;;;;;;;1.73;0.73;;;6.70;99.90;;;;;;4992318;28;20105;-53
2024/02/25 02:15:10;;;;;;;0.90;0.50;;;6.70;99.90;;;;;;4992376;28;20054;-55
2024/02/25 02:17:40;;;;;;;1.00;0.50;;;6.80;99.90;;;;;;4992316;28;20030;-55
2024/02/25 02:20:11;;;;;;;0.80;0.40;;;6.70;99.90;;;;;;4992114;28;20391;-53
2024/02/25 02:22:38;;;;;;;1.53;0.67;;;6.70;99.90;;;;;;4992382;28;20391;-55
2024/02/25 02:25:04;;;;;;;2.40;0.90;;;6.80;99.90;;;;;;4992335;28;20038;-52
2024/02/25 02:27:29;;;;;;;1.80;0.63;;;6.70;99.90;;;;;;4991014;28;20039;-54
2024/02/25 02:29:55;;;;;;;0.60;0.40;;;6.70;99.90;;;;;;4992466;28;20034;-54
2024/02/25 02:32:20;;;;;;;0.87;0.43;;;6.70;99.90;;;;;;4992398;28;20056;-55
2024/02/25 02:34:46;;;;;;;2.47;0.60;;;6.70;99.90;;;;;;4992513;28;20069;-55
2024/02/25 02:37:12;;;;;;;1.10;0.50;;;6.70;99.90;;;;;;4992583;28;20034;-55
2024/02/25 02:39:37;;;;;;;1.47;0.50;;;6.70;99.90;;;;;;4993429;28;20410;-53
2024/02/25 02:42:04;;;;;;;2.60;0.60;;;6.70;99.90;;;;;;4991994;28;20041;-54
2024/02/25 02:44:29;;;;;;;1.10;0.50;;;6.70;99.90;;;;;;4991832;28;20419;-52
2024/02/25 02:46:56;;;;;;;0.83;0.50;;;6.70;99.90;;;;;;4991053;28;20030;-55
2024/02/25 02:49:21;;;;;;;0.53;0.40;;;6.70;99.90;;;;;;4991921;28;20292;-53
2024/02/25 02:51:47;;;;;;;2.97;0.80;;;6.70;99.90;;;;;;4991338;28;20543;-51
2024/02/25 02:54:12;;;;;;;3.40;0.80;;;6.70;99.90;;;;;;4990820;28;20041;-53
2024/02/25 02:56:38;;;;;;;2.00;0.50;;;6.70;99.90;;;;;;4991560;28;20049;-54
2024/02/25 02:59:04;;;;;;;3.20;0.57;;;6.70;99.90;;;;;;4991447;28;20054;-52
2024/02/25 03:01:29;;;;;;;1.33;0.43;;;6.70;99.90;;;;;;4991368;28;20476;-53
2024/02/25 03:03:55;;;;;;;1.13;0.53;;;6.70;99.90;;;;;;4991290;28;20026;-53
2024/02/25 03:06:21;;;;;;;1.90;0.50;;;6.60;99.90;;;;;;4991282;28;20089;-55
2024/02/25 03:08:46;;;;;;;1.10;0.50;;;6.60;99.90;;;;;;4991244;28;20042;-53
2024/02/25 03:11:12;;;;;;;1.00;0.40;;;6.60;99.90;;;;;;4990936;28;20438;-52
2024/02/25 03:13:38;;;;;;;1.27;0.80;;;6.70;99.90;;;;;;4991227;28;20030;-52
2024/02/25 03:16:03;;;;;;;1.67;0.57;;;6.60;99.90;;;;;;4990007;28;20034;-52
2024/02/25 03:18:29;;;;;;;1.47;1.07;;;6.50;99.90;;;;;;4991081;28;20026;-54
2024/02/25 03:20:55;;;;;;;1.50;0.60;;;6.50;99.90;;;;;;4990926;28;20031;-54
2024/02/25 03:23:21;;;;;;;0.70;0.40;;;6.50;99.90;;;;;;4991064;28;20357;-54
2024/02/25 03:25:46;;;;;;;1.23;0.53;;;6.50;99.90;;;;;;4990960;28;20466;-52
2024/02/25 03:28:12;;;;;;;0.37;0.33;;;6.60;99.90;;;;;;4991203;28;20061;-53
2024/02/25 03:30:38;;;;;;;1.00;0.40;;;6.50;99.90;;;;;;4990838;28;20124;-53
2024/02/25 03:33:05;;;;;;;1.60;0.47;;;6.50;99.90;;;;;;4990981;28;20038;-52
2024/02/25 03:35:32;;;;;;;0.47;0.30;;;6.60;99.90;;;;;;4990978;28;20030;-54
2024/02/25 03:38:00;;;;;;;1.07;0.27;;;6.50;99.90;;;;;;4990972;28;20034;-53
2024/02/25 03:40:26;;;;;;;1.60;0.47;;;6.50;99.90;;;;;;4990977;28;20040;-55
2024/02/25 03:42:51;;;;;;;3.10;0.77;;;6.50;99.90;;;;;;4990939;28;20042;-55
2024/02/25 03:45:17;;;;;;;0.90;0.40;;;6.50;99.90;;;;;;4990903;28;20038;-52
2024/02/25 03:47:43;;;;;;;0.40;0.40;;;6.50;99.90;;;;;;4991271;28;20031;-52
2024/02/25 03:50:12;;;;;;;0.60;0.33;;;6.50;99.90;;;;;;4991124;28;20448;-55
2024/02/25 03:52:38;;;;;;;0.30;0.30;;;6.50;99.90;;;;;;4991252;28;20117;-55
2024/02/25 03:55:05;;;;;;;1.37;0.40;;;6.60;99.90;;;;;;4991041;28;20111;-53
2024/02/25 03:57:31;;;;;;;0.43;0.30;;;6.50;99.90;;;;;;4991003;28;20556;-54
2024/02/25 03:59:56;;;;;;;0.77;0.20;;;6.60;99.90;;;;;;4994347;28;20121;-53
2024/02/25 04:02:22;;;;;;;0.63;0.23;;;6.60;99.90;;;;;;4994840;28;20026;-54
2024/02/25 04:04:47;;;;;;;0.90;0.30;;;6.50;99.90;;;;;;4994745;28;20030;-54
2024/02/25 04:07:13;;;;;;;1.70;0.20;;;6.50;99.90;;;;;;4994815;28;20073;-52
2024/02/25 04:09:40;;;;;;;1.03;0.40;;;6.50;99.90;;;;;;4994707;28;20060;-54
2024/02/25 04:12:07;;;;;;;0.53;0.30;;;6.50;99.90;;;;;;4994761;28;20133;-52
2024/02/25 04:14:36;;;;;;;0.73;0.20;;;6.50;99.90;;;;;;4994892;28;20041;-52
2024/02/25 04:17:02;;;;;;;0.40;0.20;;;6.40;99.90;;;;;;4994793;28;20038;-52
2024/02/25 04:19:27;;;;;;;0.73;0.33;;;6.50;99.90;;;;;;4994654;28;20030;-54
2024/02/25 04:21:53;;;;;;;0.33;0.27;;;6.40;99.90;;;;;;4994491;28;20125;-54
2024/02/25 04:24:19;;;;;;;0.23;0.20;;;6.50;99.90;;;;;;4994631;28;20034;-54
2024/02/25 04:26:46;;;;;;;1.07;0.30;;;6.50;99.90;;;;;;4994325;28;20034;-53
2024/02/25 04:29:12;;;;;;;0.50;0.37;;;6.40;99.90;;;;;;4994383;28;20241;-51
2024/02/25 04:31:46;;;;;;;0.30;0.10;;;6.40;99.90;;;;;;4994009;28;20031;-50
2024/02/25 04:34:15;;;;;;;1.50;0.33;;;6.40;99.90;;;;;;4994623;28;20045;-52
2024/02/25 04:36:40;;;;;;;0.63;0.40;;;6.50;99.90;;;;;;4995157;28;20117;-53
2024/02/25 04:39:09;;;;;;;1.13;0.23;;;6.50;99.90;;;;;;4995371;28;20498;-52
2024/02/25 04:41:35;;;;;;;0.80;0.30;;;6.40;99.90;;;;;;4995037;28;20046;-55
2024/02/25 04:44:00;;;;;;;0.60;0.30;;;6.40;99.90;;;;;;4993979;28;20041;-51
2024/02/25 04:46:26;;;;;;;2.40;0.50;;;6.40;99.90;;;;;;4994018;28;20058;-52
2024/02/25 04:48:52;;;;;;;0.20;0.17;;;6.40;99.90;;;;;;4994061;28;20380;-52
2024/02/25 04:51:18;;;;;;;0.23;0.20;;;6.40;99.90;;;;;;4993908;28;20521;-51
2024/02/25 04:53:44;;;;;;;1.30;0.37;;;6.40;99.90;;;;;;4993876;28;20030;-51
2024/02/25 04:56:10;;;;;;;0.40;0.10;;;6.30;99.90;;;;;;4993993;28;20534;-52
2024/02/25 04:58:36;;;;;;;0.60;0.20;;;6.30;99.90;;;;;;4993821;28;20081;-52
2024/02/25 05:01:01;;;;;;;0.97;0.40;;;6.30;99.90;;;;;;4993449;28;20037;-54
2024/02/25 05:03:27;;;;;;;0.90;0.30;;;6.30;99.90;;;;;;4993772;28;20033;-54
2024/02/25 05:05:53;;;;;;;0.67;0.40;;;6.30;99.90;;;;;;4993713;28;20026;-53
2024/02/25 05:08:18;;;;;;;0.40;0.20;;;6.20;99.90;;;;;;4993703;28;20065;-52
2024/02/25 05:10:44;;;;;;;0.80;0.30;;;6.30;99.90;;;;;;4991097;28;20093;-54
2024/02/25 05:13:10;;;;;;;1.33;0.70;;;6.20;99.90;;;;;;4993504;28;20113;-52
2024/02/25 05:15:37;;;;;;;0.30;0.20;;;6.20;99.90;;;;;;4993400;28;20096;-54
2024/02/25 05:18:03;;;;;;;0.57;0.20;;;6.30;99.90;;;;;;4993509;28;20027;-52
2024/02/25 05:20:28;;;;;;;0.67;0.10;;;6.30;99.90;;;;;;4993422;28;20050;-53
2024/02/25 05:22:54;;;;;;;0.20;0.10;;;6.30;99.90;;;;;;4993285;28;20097;-52
2024/02/25 05:25:21;;;;;;;0.30;0.20;;;6.30;99.90;;;;;;4993388;28;20069;-53
2024/02/25 05:27:47;;;;;;;0.80;0.20;;;6.30;99.90;;;;;;4993295;28;20034;-54
2024/02/25 05:30:13;;;;;;;2.00;0.40;;;6.30;99.90;;;;;;4993207;28;20030;-53
2024/02/25 05:32:40;;;;;;;0.20;0.20;;;6.30;99.90;;;;;;4993312;28;20049;-51
2024/02/25 05:35:07;;;;;;;0.40;0.20;;;6.30;99.90;;;;;;4993042;28;20124;-51
2024/02/25 05:37:33;;;;;;;0.30;0.20;;;6.30;99.90;;;;;;4992924;28;20049;-53
2024/02/25 05:39:59;;;;;;;3.27;0.50;;;6.30;99.90;;;;;;4992608;28;20034;-51
2024/02/25 05:42:25;;;;;;;0.50;0.23;;;6.40;99.90;;;;;;4992736;28;20030;-53
2024/02/25 05:44:54;;;;;;;0.60;0.30;;;6.40;99.90;;;;;;4992543;28;20372;-53
2024/02/25 05:47:20;;;;;;;0.65;0.43;;;6.40;99.90;;;;;;4992848;28;20070;-51
2024/02/25 05:49:46;;;;;;;5.40;1.23;;;6.30;99.90;;;;;;4992641;28;20329;-51
2024/02/25 05:52:12;;;;;;;0.23;0.20;;;6.30;99.90;;;;;;4992920;28;20084;-50
2024/02/25 05:54:37;;;;;;;0.40;0.30;;;6.20;99.90;;;;;;4992991;28;20105;-51
2024/02/25 05:57:04;;;;;;;3.67;0.93;;;6.20;99.90;;;;;;4992826;28;20026;-51
2024/02/25 05:59:31;;;;;;;2.43;0.50;;;6.30;99.90;;;;;;4992700;28;20410;-51
2024/02/25 06:01:57;;;;;;;0.97;0.20;;;6.30;99.90;;;;;;4992561;28;20035;-52
2024/02/25 06:04:23;;;;;;;0.80;0.30;;;6.30;99.90;;;;;;4992990;28;20056;-51
2024/02/25 06:06:52;;;;;;;0.43;0.20;;;6.30;99.90;;;;;;4992534;28;20477;-55
2024/02/25 06:09:18;;;;;;;0.30;0.23;;;6.30;99.90;;;;;;4991066;28;20034;-51
2024/02/25 06:11:45;;;;;;;0.40;0.20;;;6.30;99.90;;;;;;4992009;28;20042;-54
2024/02/25 06:14:11;;;;;;;0.30;0.20;;;6.30;99.90;;;;;;4992395;28;20431;-54
2024/02/25 06:16:37;;;;;;;0.20;0.13;;;6.30;99.90;;;;;;4992443;28;20088;-51
2024/02/25 06:19:02;;;;;;;0.60;0.40;;;6.30;99.90;;;;;;4992547;28;20030;-51
2024/02/25 06:21:28;;;;;;;0.90;0.43;;;6.30;99.90;;;;;;4991960;28;20430;-53
2024/02/25 06:23:55;;;;;;;1.13;0.40;;;6.30;99.90;;;;;;4991973;28;20030;-54
2024/02/25 06:26:20;;;;;;;0.43;0.27;;;6.30;99.90;;;;;;4992060;28;20213;-52
2024/02/25 06:28:46;;;;;;;1.27;0.23;;;6.30;99.90;;;;;;4991936;28;20109;-52
2024/02/25 06:31:12;;;;;;;0.60;0.10;;;6.30;99.90;;;;;;4991504;28;20026;-50
2024/02/25 06:33:37;;;;;;;1.23;0.20;;;6.30;99.90;;;;;;4991745;28;20530;-51
2024/02/25 06:36:03;;;;;;;1.07;0.30;;;6.30;99.90;;;;;;4991747;28;20037;-52
2024/02/25 06:38:29;;;;;;;1.70;0.30;;;6.30;99.90;;;;;;4992256;28;20035;-55
2024/02/25 06:40:55;;;;;;;0.83;0.40;;;6.40;99.90;;;;;;4991483;28;20475;-52
2024/02/25 06:43:23;;;;;;;0.30;0.30;;;6.40;99.90;;;;;;4991909;28;20526;-50
2024/02/25 06:45:49;;;;;;;1.50;0.30;;;6.40;99.90;;;;;;4991714;28;20113;-51
2024/02/25 06:48:14;;;;;;;0.50;0.20;;;6.40;99.90;;;;;;4991762;28;20105;-54
2024/02/25 06:50:40;;;;;;;0.27;0.10;;;6.40;99.90;;;;;;4991537;28;20026;-54
2024/02/25 06:53:06;;;;;;;0.20;0.20;;;6.40;99.90;;;;;;4991663;28;20049;-50
2024/02/25 06:55:32;;;;;;;0.40;0.20;;;6.40;99.90;;;;;;4990077;28;20442;-52
2024/02/25 06:57:57;;;;;;;0.87;0.30;;;6.50;99.90;;;;;;4988682;28;20030;-51
2024/02/25 07:00:23;;;;;;;0.47;0.30;;;6.50;99.90;;;;;;4988750;28;20053;-51
2024/02/25 07:02:54;;;;;;;0.37;0.20;;;6.50;99.90;;;;;;4991988;28;20614;-51
2024/02/25 07:05:20;;;;;;;2.47;1.10;;;6.40;99.90;;;;;;4991606;28;20440;-53
2024/02/25 07:07:46;;;;;;;0.47;0.43;;;6.50;99.90;;;;;;4991602;28;20043;-51
2024/02/25 07:10:12;;;;;;;0.30;0.30;;;6.50;99.90;;;;;;4990983;28;20033;-54
2024/02/25 07:12:39;;;;;;;0.50;0.20;;;6.50;99.90;;;;;;4991057;28;20092;-53
2024/02/25 07:15:05;;;;;;;0.73;0.30;;;6.60;99.90;;;;;;4991074;28;20069;-53
2024/02/25 07:17:31;;;;;;;0.93;0.30;;;6.50;99.90;;;;;;4991100;28;20084;-50
2024/02/25 07:19:56;;;;;;;0.90;0.30;;;6.50;99.90;;;;;;4990898;28;20026;-53
2024/02/25 07:22:22;;;;;;;0.93;0.30;;;6.60;99.90;;;;;;4989624;28;20034;-52
2024/02/25 07:24:48;;;;;;;1.40;0.40;;;6.60;99.90;;;;;;4990873;28;20041;-51
2024/02/25 07:27:13;;;;;;;0.60;0.23;;;6.60;99.90;;;;;;4983776;28;20026;-55
2024/02/25 07:29:39;;;;;;;1.30;0.30;;;6.60;99.90;;;;;;4980168;28;20146;-52
2024/02/25 07:32:05;;;;;;;2.10;0.40;;;6.60;99.90;;;;;;4987982;28;20026;-51
2024/02/25 07:34:31;;;;;;;0.50;0.27;;;6.60;99.90;;;;;;4990500;28;20125;-53
2024/02/25 07:36:57;;;;;;;0.43;0.30;;;6.60;99.90;;;;;;4982638;28;20026;-53
2024/02/25 07:39:22;;;;;;;0.77;0.60;;;6.50;99.90;;;;;;4980361;28;20573;-50
2024/02/25 07:41:49;;;;;;;0.30;0.20;;;6.60;99.90;;;;;;4981481;28;20033;-54
2024/02/25 07:44:15;;;;;;;0.87;0.30;;;6.70;99.90;;;;;;4978628;28;20037;-52
2024/02/25 07:46:41;;;;;;;1.13;0.40;;;6.70;99.90;;;;;;4980646;28;20038;-54
2024/02/25 07:49:07;;;;;;;0.60;0.30;;;6.70;99.90;;;;;;4981476;28;20033;-52
2024/02/25 07:51:36;;;;;;;0.27;0.23;;;6.70;99.90;;;;;;4979489;28;20034;-52
2024/02/25 07:54:03;;;;;;;1.55;0.50;;;6.70;99.90;;;;;;4982588;28;20031;-51
2024/02/25 07:56:28;;;;;;;0.20;0.20;;;6.70;99.90;;;;;;4980019;28;20524;-54
2024/02/25 07:58:54;;;;;;;0.50;0.20;;;6.70;99.90;;;;;;4981672;28;20136;-53
2024/02/25 08:01:20;;;;;;;0.73;0.53;;;6.60;99.90;;;;;;4980192;28;20058;-54
2024/02/25 08:03:45;;;;;;;1.37;0.40;;;6.60;99.90;;;;;;4980090;28;20022;-53
2024/02/25 08:06:11;;;;;;;0.73;0.50;;;6.70;99.90;;;;;;4981422;28;20029;-53
2024/02/25 08:08:37;;;;;;;1.73;0.40;;;6.70;99.90;;;;;;4981576;28;20027;-53
2024/02/25 08:11:03;;;;;;;0.60;0.40;;;6.70;99.90;;;;;;4979955;28;20022;-52
2024/02/25 08:13:29;;;;;;;0.27;0.23;;;6.90;99.90;;;;;;4981294;28;20035;-51
2024/02/25 08:15:55;;;;;;;0.47;0.23;;;7.10;99.90;;;;;;4979173;28;20027;-53
2024/02/25 08:18:21;;;;;;;0.77;0.40;;;7.50;99.90;;;;;;4980564;28;20077;-51
2024/02/25 08:20:47;;;;;;;0.70;0.37;;;7.70;99.90;;;;;;4988947;28;20357;-51
2024/02/25 08:23:14;;;;;;;1.80;0.50;;;7.70;99.90;;;;;;4990235;28;20037;-52
2024/02/25 08:25:40;;;;;;;0.20;0.20;;;8.00;99.90;;;;;;4990057;28;20034;-55
2024/02/25 08:28:06;;;;;;;1.83;0.30;;;8.20;99.90;;;;;;4990225;28;20061;-50
2024/02/25 08:30:32;;;;;;;8.77;3.57;;;8.40;99.90;;;;;;4990075;28;20031;-51
2024/02/25 08:32:57;;;;;;;14.33;4.73;;;8.50;99.90;;;;;;4990194;28;20038;-51
2024/02/25 08:35:23;;;;;;;1.13;0.83;;;8.50;99.90;;;;;;4989659;28;20444;-53
2024/02/25 08:37:49;;;;;;;1.87;0.50;;;8.50;99.90;;;;;;4987577;28;20030;-52
2024/02/25 08:40:15;;;;;;;4.10;0.40;;;8.40;99.90;;;;;;4980372;28;20022;-52
2024/02/25 08:42:41;;;;;;;0.70;0.33;;;8.40;99.90;;;;;;4978983;28;20160;-51
2024/02/25 08:45:07;;;;;;;0.37;0.20;;;8.30;99.90;;;;;;4979839;28;20046;-54
2024/02/25 08:47:33;;;;;;;0.30;0.17;;;8.30;99.90;;;;;;4983948;28;20023;-53
2024/02/25 08:49:59;;;;;;;0.77;0.27;;;8.20;99.90;;;;;;4966547;28;20085;-51
2024/02/25 08:52:25;;;;;;;0.60;0.40;;;8.20;99.90;;;;;;4985430;28;20026;-54
2024/02/25 08:54:50;;;;;;;2.47;0.47;;;8.30;99.90;;;;;;4982082;28;20101;-51
2024/02/25 08:57:16;;;;;;;0.50;0.20;;;8.40;99.90;;;;;;4975072;28;20031;-51
2024/02/25 08:59:42;;;;;;;1.67;0.50;;;8.50;99.90;;;;;;4974326;28;20023;-51
2024/02/25 09:02:08;;;;;;;0.30;0.30;;;8.70;99.90;;;;;;4974288;28;20177;-55
2024/02/25 09:04:34;;;;;;;0.73;0.30;;;8.80;99.90;;;;;;4974039;28;20063;-51
2024/02/25 09:07:02;;;;;;;0.40;0.20;;;8.90;99.90;;;;;;4973394;28;20042;-54
2024/02/25 09:09:28;;;;;;;2.83;0.50;;;9.00;99.90;;;;;;4974071;28;20038;-50
2024/02/25 09:11:54;;;;;;;1.03;0.20;;;9.00;99.90;;;;;;4973621;28;20035;-50
2024/02/25 09:14:20;;;;;;;1.07;0.23;;;9.00;99.90;;;;;;4974131;28;20059;-53
2024/02/25 09:16:46;;;;;;;0.80;0.27;;;9.10;99.90;;;;;;4973984;28;20090;-50
2024/02/25 09:19:13;;;;;;;1.03;0.30;;;9.10;99.90;;;;;;4974053;28;20066;-53
2024/02/25 09:21:39;;;;;;;0.60;0.33;;;9.10;99.90;;;;;;4973854;28;20041;-51
2024/02/25 09:24:05;;;;;;;0.20;0.20;;;9.10;99.90;;;;;;4973776;28;20110;-53
2024/02/25 09:26:31;;;;;;;0.63;0.20;;;9.10;99.90;;;;;;4973744;28;20455;-53
2024/02/25 09:28:58;;;;;;;1.83;0.40;;;9.10;99.90;;;;;;4973872;28;20027;-51
2024/02/25 09:31:24;;;;;;;1.10;0.33;;;9.20;99.90;;;;;;4973713;28;20058;-54
2024/02/25 09:33:50;;;;;;;0.30;0.20;;;9.20;99.90;;;;;;4973782;28;20023;-54
2024/02/25 09:36:23;;;;;;;2.60;0.40;;;9.30;99.90;;;;;;4974034;28;20031;-51
2024/02/25 09:38:49;;;;;;;1.33;0.60;;;9.50;99.90;;;;;;4974104;28;20038;-53
2024/02/25 09:41:27;;;;;;;0.37;0.20;;;9.50;99.90;;;;;;4973573;28;20052;-53
2024/02/25 09:43:54;;;;;;;0.70;0.30;;;9.50;99.90;;;;;;4973562;28;20030;-55
2024/02/25 09:46:24;;;;;;;0.27;0.20;;;9.50;99.90;;;;;;4973794;28;20030;-51
2024/02/25 09:48:54;;;;;;;0.97;0.30;;;9.50;99.90;;;;;;4973682;28;20026;-53
2024/02/25 09:51:23;;;;;;;0.47;0.10;;;9.40;99.90;;;;;;4956054;28;20036;-53
2024/02/25 09:53:52;;;;;;;1.30;0.60;;;9.50;99.90;;;;;;4973421;28;20433;-52
2024/02/25 09:56:19;;;;;;;1.63;0.45;;;9.40;99.90;;;;;;4973237;28;20070;-52
2024/02/25 09:58:44;;;;;;;0.80;0.40;;;9.40;99.90;;;;;;4972128;28;20031;-54
2024/02/25 10:01:10;;;;;;;0.97;0.30;;;9.30;99.90;;;;;;4971714;28;20114;-54
2024/02/25 10:03:38;;;;;;;0.60;0.20;;;9.30;99.90;;;;;;4973217;28;20070;-52
2024/02/25 10:06:03;;;;;;;1.90;0.47;;;9.50;99.90;;;;;;4972032;28;20038;-51
2024/02/25 10:08:30;;;;;;;0.93;0.37;;;9.60;99.90;;;;;;4972754;28;20027;-51
2024/02/25 10:10:58;;;;;;;1.13;0.30;;;9.70;99.90;;;;;;4972809;28;20042;-56
2024/02/25 10:13:24;;;;;;;2.43;0.77;;;9.70;99.90;;;;;;4972726;28;20121;-55
2024/02/25 10:16:00;;;;;;;1.27;0.30;;;9.70;99.90;;;;;;4972966;28;20023;-55
2024/02/25 10:18:28;;;;;;;0.30;0.20;;;9.80;99.90;;;;;;4971510;28;20030;-56
2024/02/25 10:21:00;;;;;;;1.33;0.38;;;10.10;99.90;;;;;;4972570;28;20026;-55
2024/02/25 10:23:27;;;;;;;0.67;0.53;;;10.40;99.90;;;;;;4973023;28;20039;-53
2024/02/25 10:25:53;;;;;;;0.40;0.20;;;10.80;99.90;;;;;;4972627;28;20038;-55
2024/02/25 10:28:19;;;;;;;0.73;0.37;;;10.70;99.90;;;;;;4972673;28;20043;-52
2024/02/25 10:30:58;;;;;;;1.13;0.37;;;10.50;99.90;;;;;;4972668;28;20030;-53
2024/02/25 10:33:24;;;;;;;2.10;0.30;;;10.30;99.90;;;;;;4972711;28;20042;-53
2024/02/25 10:35:52;;;;;;;0.70;0.23;;;10.30;99.90;;;;;;4972985;28;20109;-53
2024/02/25 10:38:21;;;;;;;1.07;0.40;;;10.40;99.90;;;;;;4972570;28;20031;-53
2024/02/25 10:40:47;;;;;;;0.73;0.28;;;10.50;99.90;;;;;;4972392;28;20026;-50
2024/02/25 10:43:14;;;;;;;1.47;0.43;;;10.50;99.90;;;;;;4972601;28;20130;-51
2024/02/25 10:45:46;;;;;;;1.57;0.30;;;10.40;99.90;;;;;;4972357;28;20039;-53
2024/02/25 10:48:13;;;;;;;2.57;0.20;;;10.30;99.90;;;;;;4972235;28;20031;-55
2024/02/25 10:50:40;;;;;;;0.80;0.33;;;10.20;99.90;;;;;;4972022;28;20031;-55
2024/02/25 10:53:09;;;;;;;1.30;0.40;;;10.10;99.90;;;;;;4971740;28;20045;-53
2024/02/25 10:55:35;;;;;;;1.92;0.40;;;10.10;99.90;;;;;;4970928;28;20038;-54
2024/02/25 10:58:02;;;;;;;2.00;0.40;;;10.20;99.90;;;;;;4955022;28;20030;-51
2024/02/25 11:00:28;;;;;;;2.77;0.50;;;10.50;99.90;;;;;;4972381;28;20117;-54
2024/02/25 11:02:55;;;;;;;1.17;0.20;;;10.60;99.90;;;;;;4972298;28;20127;-51
2024/02/25 11:05:21;;;;;;;1.63;0.40;;;10.80;99.90;;;;;;4972186;28;20471;-53
2024/02/25 11:07:47;;;;;;;2.43;0.40;;;10.80;99.90;;;;;;4970943;28;20105;-53
2024/02/25 11:10:20;;;;;;;2.80;0.30;;;10.90;99.90;;;;;;4971585;28;20039;-53
2024/02/25 11:12:47;;;;;;;1.13;0.30;;;10.90;99.90;;;;;;4971866;28;20129;-54
2024/02/25 11:15:20;;;;;;;1.60;0.40;;;11.00;99.90;;;;;;4971791;28;20035;-53
2024/02/25 11:17:48;;;;;;;0.93;0.27;;;11.20;99.90;;;;;;4971737;28;20061;-53
2024/02/25 11:20:19;;;;;;;0.70;0.20;;;11.20;99.90;;;;;;4970022;28;20041;-53
2024/02/25 11:22:47;;;;;;;1.93;0.30;;;11.40;99.90;;;;;;4971864;28;20038;-51
2024/02/25 11:25:28;;;;;;;0.53;0.23;;;11.40;99.90;;;;;;4972017;28;20101;-53
2024/02/25 11:28:13;;;;;;;1.20;0.30;;;11.60;99.90;;;;;;4971891;28;20042;-51
2024/02/25 11:30:40;;;;;;;2.03;0.30;;;12.90;99.90;;;;;;4971700;28;20101;-53
2024/02/25 11:33:24;;;;;;;1.02;0.30;;;14.50;99.90;;;;;;4971887;28;20030;-53
2024/02/25 11:35:50;;;;;;;1.85;0.22;;;15.60;98.60;;;;;;4971704;28;20469;-52
2024/02/25 11:38:23;;;;;;;2.63;0.43;;;15.50;97.30;;;;;;4971647;28;20391;-53
2024/02/25 11:40:51;;;;;;;0.77;0.20;;;14.50;98.40;;;;;;4978795;28;20027;-51
2024/02/25 11:43:17;;;;;;;1.42;0.50;;;14.10;98.80;;;;;;4991194;28;20049;-51
2024/02/25 11:45:43;;;;;;;1.75;0.43;;;13.70;99.30;;;;;;4991194;28;20030;-49
2024/02/25 11:48:10;;;;;;;0.57;0.32;;;13.80;99.70;;;;;;4986248;28;20022;-50
2024/02/25 11:50:36;;;;;;;1.38;0.35;;;13.90;99.40;;;;;;4980426;28;20061;-53
2024/02/25 11:53:02;;;;;;;1.80;0.35;;;14.00;99.00;;;;;;4972705;28;20038;-50
2024/02/25 11:55:28;;;;;;;0.95;0.47;;;14.20;99.00;;;;;;4971515;28;20047;-51
2024/02/25 11:57:54;;;;;;;3.35;0.30;;;14.00;98.70;;;;;;4971662;28;20027;-53
2024/02/25 12:00:21;;;;;;;0.50;0.30;;;13.50;99.50;;;;;;4971320;28;20027;-53
2024/02/25 12:02:47;;;;;;;1.17;0.40;;;14.00;98.80;;;;;;4971722;28;20381;-52
2024/02/25 12:05:14;;;;;;;1.73;0.40;;;14.40;99.20;;;;;;4971557;28;20444;-54
2024/02/25 12:07:41;;;;;;;0.40;0.20;;;15.30;99.00;;;;;;4971494;28;20022;-52
2024/02/25 12:10:07;;;;;;;1.48;0.40;;;15.60;96.40;;;;;;4971573;28;20683;-53
2024/02/25 12:12:34;;;;;;;0.93;0.40;;;14.90;96.70;;;;;;4971457;28;20038;-51
2024/02/25 12:15:00;;;;;;;1.13;0.30;;;14.10;97.30;;;;;;4971471;28;20125;-51
2024/02/25 12:17:27;;;;;;;1.15;0.43;;;13.40;98.60;;;;;;4971387;28;20495;-51
2024/02/25 12:19:54;;;;;;;2.15;0.30;;;12.80;99.80;;;;;;4972681;28;20471;-52
2024/02/25 12:22:24;;;;;;;1.13;0.40;;;12.70;99.90;;;;;;4975178;28;20041;-53
2024/02/25 12:24:53;;;;;;;0.95;0.32;;;12.60;99.90;;;;;;4974771;28;20550;-53
2024/02/25 12:27:22;;;;;;;0.93;0.40;;;12.40;99.80;;;;;;4977613;28;20181;-53
2024/02/25 12:29:50;;;;;;;;;;;12.20;99.90;;;;;;4994952;28;20045;-50
2024/02/25 12:32:20;;;;;;;2.05;0.28;;;11.90;99.90;;;;;;4987064;28;19918;-51
2024/02/25 12:34:47;;;;;;;1.53;0.40;;;11.70;99.90;;;;;;4983960;28;20117;-54
2024/02/25 12:37:16;;;;;;;0.87;0.30;;;11.60;99.90;;;;;;4990971;28;20045;-54
2024/02/25 12:39:42;;;;;;;1.75;0.47;;;11.50;99.90;;;;;;4994546;28;20022;-54
2024/02/25 12:42:09;;;;;;;2.07;0.70;;;11.40;99.90;;;;;;4994826;28;20038;-54
2024/02/25 12:44:35;;;;;;;1.20;0.20;;;11.20;99.90;;;;;;4994406;28;20049;-54
2024/02/25 12:47:02;;;;;;;0.30;0.20;;;11.20;99.90;;;;;;4994755;28;20034;-53
2024/02/25 12:49:28;;;;;;;1.70;0.30;;;11.20;99.90;;;;;;4995359;28;20061;-53
2024/02/25 12:51:53;;;;;;;2.23;0.40;;;11.20;99.90;;;;;;4994675;28;20038;-52